OPDG

Dera Ghazi Khan Airport

Dera Ghazi Khan, Pakistan
TAF OPDG 260410Z 2606/2624 13010KT 5000 HZ FEW120 TX42/2610Z
Issued Valid From Valid To
Apr-26 @ 04:10 UTC
(2 hours ago)
Apr-26 @ 06:00 UTC
(in a few seconds)
Apr-27 @ 00:00 UTC
(in 18 hours)
Apr-26 @ 06:00 to Apr-27 @ 00:00
TAF OPDG 260410Z 2606/2624 13010KT 5000 HZ FEW120 TX42/2610Z
Wind Visibility Clouds Conditions
130° at 10 knots 5,005 meters
  • Few at 12,000' AGL
  • Haze
TAF OPDG 260410Z 2606/2624 13010KT 5000 HZ FEW120 TX42/2610Z
Issued Apr-26 @ 04:10 UTC
(2 hours ago)
Valid From Apr-26 @ 06:00 UTC
(in a few seconds)
Valid To Apr-27 @ 00:00 UTC
(in 18 hours)
Apr-26 @ 06:00 - Apr-27 @ 00:00
Wind Visibility
130° at 10 knots 5,005 meters
Clouds
  • Few at 12,000' AGL
Conditions
  • Haze